Time;durP1;ratioP1;P1;durP2;ratioP2;P2;SDS_P1;SDS_P2;PMS_P1;PMS_P2;Temp;Humidity;BMP_temperature;BMP_pressure;BME280_temperature;BME280_humidity;BME280_pressure;Samples;Min_cycle;Max_cycle;Signal;HPM_P1;HPM_P2
2023/07/29 00:01:45;;;;;;;2.20;1.40;;;;;;;20.49;91.77;99692.34;5058245;28;20235;-82
2023/07/29 00:04:12;;;;;;;2.37;1.67;;;;;;;20.47;92.02;99688.94;5077121;28;20556;-83
2023/07/29 00:06:39;;;;;;;1.40;1.30;;;;;;;20.49;91.45;99696.78;5075652;28;20235;-82
2023/07/29 00:09:05;;;;;;;3.80;1.43;;;;;;;20.48;91.37;99705.72;5063697;28;20201;-82
2023/07/29 00:11:33;;;;;;;1.33;1.23;;;;;;;20.42;91.73;99699.91;5076751;28;20287;-80
2023/07/29 00:14:00;;;;;;;1.20;1.20;;;;;;;20.43;91.83;99698.09;5081656;28;20199;-80
2023/07/29 00:16:27;;;;;;;1.30;1.20;;;;;;;20.39;91.76;99710.69;5076719;28;20208;-81
2023/07/29 00:18:54;;;;;;;1.90;1.40;;;;;;;20.38;91.80;99711.69;5092662;28;20230;-80
2023/07/29 00:21:21;;;;;;;1.23;1.13;;;;;;;20.32;92.08;99716.59;5096588;28;20219;-82
2023/07/29 00:23:47;;;;;;;3.33;1.30;;;;;;;20.32;92.35;99701.50;5085870;28;20622;-82
2023/07/29 00:26:13;;;;;;;1.33;1.23;;;;;;;20.27;92.49;99698.34;5076149;28;20236;-81
2023/07/29 00:28:40;;;;;;;2.13;1.40;;;;;;;20.23;92.74;99697.69;5085912;28;20205;-81
2023/07/29 00:31:06;;;;;;;1.50;1.40;;;;;;;20.22;92.62;99698.66;5096301;28;20221;-82
2023/07/29 00:33:34;;;;;;;1.47;1.17;;;;;;;20.19;92.64;99687.44;5087535;28;20331;-81
2023/07/29 00:36:01;;;;;;;1.37;1.27;;;;;;;20.20;92.65;99710.34;5088070;28;20211;-82
2023/07/29 00:38:28;;;;;;;1.60;1.30;;;;;;;20.18;92.32;99702.50;5088528;28;20279;-82
2023/07/29 00:40:54;;;;;;;1.83;1.50;;;;;;;20.16;92.67;99698.28;5075794;28;20233;-82
2023/07/29 00:43:20;;;;;;;1.47;1.30;;;;;;;20.12;92.61;99697.63;5086540;28;20261;-81
2023/07/29 00:45:48;;;;;;;1.63;1.30;;;;;;;20.06;92.70;99698.06;5095893;28;20222;-82
2023/07/29 00:48:15;;;;;;;2.90;1.67;;;;;;;20.00;93.09;99688.75;5090189;28;20663;-82
2023/07/29 00:50:42;;;;;;;2.83;1.80;;;;;;;20.01;93.32;99682.47;5075747;28;20582;-82
2023/07/29 00:53:09;;;;;;;1.90;1.70;;;;;;;19.99;92.96;99689.69;5083240;28;20196;-81
2023/07/29 00:55:35;;;;;;;1.60;1.50;;;;;;;19.97;93.13;99688.09;5095563;28;20207;-81
2023/07/29 00:58:02;;;;;;;2.87;1.40;;;;;;;19.96;93.20;99684.63;5091417;28;20231;-81
2023/07/29 01:00:28;;;;;;;3.17;1.53;;;;;;;19.94;93.05;99677.72;5077835;28;20261;-81
2023/07/29 01:02:55;;;;;;;1.20;1.20;;;;;;;19.91;93.19;99691.19;5095504;28;20621;-82
2023/07/29 01:05:22;;;;;;;2.10;1.43;;;;;;;19.85;93.32;99684.50;5095581;28;20738;-81
2023/07/29 01:07:54;;;;;;;2.50;1.60;;;;;;;19.83;93.47;99674.03;5092672;28;20259;-81
2023/07/29 01:10:32;;;;;;;2.40;1.60;;;;;;;19.85;93.16;99676.56;5074814;28;20256;-82
2023/07/29 01:13:05;;;;;;;1.53;1.43;;;;;;;19.81;93.20;99675.94;5081222;28;20231;-81
2023/07/29 01:15:40;;;;;;;1.47;1.40;;;;;;;19.79;93.58;99666.41;5094382;28;20207;-79
2023/07/29 01:18:11;;;;;;;2.00;1.33;;;;;;;19.78;93.72;99662.03;5091373;28;20218;-81
2023/07/29 01:20:41;;;;;;;1.40;1.30;;;;;;;19.75;93.84;99656.97;5075141;28;20766;-82
2023/07/29 01:23:09;;;;;;;1.73;1.20;;;;;;;19.74;93.60;99671.16;5080463;28;20210;-81
2023/07/29 01:25:36;;;;;;;2.67;1.53;;;;;;;19.76;93.57;99671.91;5074836;28;20272;-81
2023/07/29 01:28:03;;;;;;;2.03;1.30;;;;;;;19.72;93.60;99666.00;5082978;28;20218;-81
2023/07/29 01:30:34;;;;;;;1.40;1.30;;;;;;;19.71;94.03;99661.63;5075697;28;20278;-81
2023/07/29 01:33:05;;;;;;;2.17;1.60;;;;;;;19.64;93.99;99660.31;5088598;28;20218;-79
2023/07/29 01:35:36;;;;;;;2.70;1.53;;;;;;;19.61;94.02;99658.75;5095244;28;20212;-79
2023/07/29 01:38:07;;;;;;;1.67;1.30;;;;;;;19.61;94.09;99645.50;5082107;28;20208;-80
2023/07/29 01:40:34;;;;;;;1.20;1.20;;;;;;;19.57;94.48;99643.19;5074917;28;20239;-81
2023/07/29 01:43:03;;;;;;;2.50;1.70;;;;;;;19.57;94.35;99651.13;5079592;28;20208;-81
2023/07/29 01:45:31;;;;;;;1.63;1.53;;;;;;;19.56;94.82;99645.00;5094764;28;20231;-80
2023/07/29 01:47:58;;;;;;;2.00;1.70;;;;;;;19.56;94.60;99642.34;5091448;28;20208;-80
2023/07/29 01:50:24;;;;;;;1.87;1.77;;;;;;;19.53;94.93;99641.72;5075022;28;20228;-81
2023/07/29 01:52:51;;;;;;;1.60;1.50;;;;;;;19.49;95.28;99627.84;5076457;28;20688;-81
2023/07/29 01:55:17;;;;;;;1.70;1.60;;;;;;;19.46;95.78;99620.09;5089545;28;20630;-81
2023/07/29 01:57:44;;;;;;;1.87;1.40;;;;;;;19.46;95.75;99614.78;5091028;28;20199;-80
2023/07/29 02:00:13;;;;;;;1.43;1.33;;;;;;;19.43;96.17;99615.88;5075274;28;20228;-81
2023/07/29 02:02:39;;;;;;;1.90;1.80;;;;;;;19.43;96.24;99613.22;5075703;28;20203;-80
2023/07/29 02:05:06;;;;;;;1.53;1.33;;;;;;;19.47;96.33;99613.03;5075574;28;20211;-81
2023/07/29 02:07:32;;;;;;;1.60;1.50;;;;;;;19.49;96.49;99611.09;5074134;28;20207;-81
2023/07/29 02:09:59;;;;;;;1.50;1.40;;;;;;;19.48;96.72;99604.94;5082232;28;20756;-81
2023/07/29 02:12:25;;;;;;;1.40;1.40;;;;;;;19.48;96.81;99594.34;5074315;28;20212;-81
2023/07/29 02:14:52;;;;;;;1.80;1.50;;;;;;;19.48;97.07;99573.19;5092405;28;20224;-82
2023/07/29 02:17:19;;;;;;;1.43;1.33;;;;;;;19.42;98.07;99563.03;5094120;28;20206;-81
2023/07/29 02:19:46;;;;;;;1.50;1.30;;;;;;;19.42;98.47;99560.38;5084873;28;20235;-81
2023/07/29 02:22:15;;;;;;;1.83;1.60;;;;;;;19.43;98.41;99562.94;5073556;28;20212;-79
2023/07/29 02:24:41;;;;;;;2.97;1.50;;;;;;;19.43;98.40;99562.94;5090802;28;20207;-81
2023/07/29 02:27:07;;;;;;;1.83;1.70;;;;;;;19.45;98.46;99560.19;5094150;28;20204;-80
2023/07/29 02:29:34;;;;;;;1.80;1.30;;;;;;;19.42;98.75;99553.31;5094296;28;20239;-81
2023/07/29 02:32:00;;;;;;;1.20;1.20;;;;;;;19.44;98.48;99551.41;5094371;28;20207;-81
2023/07/29 02:34:28;;;;;;;1.50;1.40;;;;;;;19.44;99.09;99546.09;5087050;28;20231;-81
2023/07/29 02:36:55;;;;;;;2.57;1.33;;;;;;;19.44;99.31;99537.28;5074631;28;20625;-81
2023/07/29 02:39:21;;;;;;;1.40;1.30;;;;;;;19.45;99.69;99539.00;5086181;28;20222;-80
2023/07/29 02:41:48;;;;;;;2.70;1.43;;;;;;;19.48;99.02;99548.53;5094470;28;20212;-81
2023/07/29 02:44:14;;;;;;;1.43;1.33;;;;;;;19.50;99.40;99546.59;5088974;28;20207;-81
2023/07/29 02:46:40;;;;;;;2.67;1.50;;;;;;;19.50;99.63;99551.91;5073680;28;20234;-81
2023/07/29 02:49:07;;;;;;;2.73;1.60;;;;;;;19.49;99.97;99551.06;5083945;28;20199;-81
2023/07/29 02:51:35;;;;;;;1.50;1.40;;;;;;;19.50;99.61;99554.56;5085714;28;20207;-81
2023/07/29 02:54:01;;;;;;;1.60;1.40;;;;;;;19.46;99.64;99559.22;5089948;28;20231;-82
2023/07/29 02:56:28;;;;;;;2.97;1.50;;;;;;;19.44;99.79;99562.00;5074256;28;20204;-81
2023/07/29 02:58:54;;;;;;;2.33;1.40;;;;;;;19.49;100.00;99558.16;5083854;28;20207;-80
2023/07/29 03:01:20;;;;;;;3.00;1.93;;;;;;;19.49;99.98;99559.00;5098650;28;20257;-81
2023/07/29 03:03:47;;;;;;;3.63;1.27;;;;;;;19.47;100.00;99546.84;5096658;28;20208;-82
2023/07/29 03:06:14;;;;;;;2.43;1.40;;;;;;;19.50;100.00;99555.38;5078133;28;20208;-81
2023/07/29 03:08:42;;;;;;;1.30;1.20;;;;;;;19.52;99.74;99563.22;5082795;28;20577;-81
2023/07/29 03:11:10;;;;;;;1.40;1.30;;;;;;;19.31;100.00;99562.94;5089958;28;20766;-81
2023/07/29 03:13:37;;;;;;;1.53;1.20;;;;;;;19.36;100.00;99558.16;5098237;28;20204;-81
2023/07/29 03:16:07;;;;;;;1.40;1.40;;;;;;;19.43;100.00;99554.16;5078261;28;20648;-81
2023/07/29 03:18:33;;;;;;;1.60;1.50;;;;;;;19.33;100.00;99546.00;5081572;28;20613;-81
2023/07/29 03:21:00;;;;;;;1.60;1.50;;;;;;;19.44;100.00;99532.00;5078292;28;20228;-81
2023/07/29 03:23:26;;;;;;;1.53;1.40;;;;;;;19.51;100.00;99527.13;5090968;28;20262;-80
2023/07/29 03:25:56;;;;;;;1.87;1.23;;;;;;;19.54;100.00;99522.44;5079405;28;20632;-81
2023/07/29 03:28:24;;;;;;;3.27;1.17;;;;;;;19.59;100.00;99524.78;5079419;28;20207;-81
2023/07/29 03:30:50;;;;;;;1.83;1.47;;;;;;;19.54;100.00;99532.19;5089937;28;20231;-80
2023/07/29 03:33:17;;;;;;;1.87;1.37;;;;;;;19.60;100.00;99530.00;5094909;28;20207;-80
2023/07/29 03:35:44;;;;;;;2.27;1.50;;;;;;;19.63;100.00;99532.41;5078296;28;20249;-78
2023/07/29 03:38:11;;;;;;;1.53;1.47;;;;;;;19.70;99.73;99555.78;5074440;28;20235;-80
2023/07/29 03:40:37;;;;;;;1.87;1.53;;;;;;;19.76;99.45;99565.97;5094512;28;20234;-80
2023/07/29 03:43:05;;;;;;;1.93;1.60;;;;;;;19.73;98.78;99582.94;5094676;28;20562;-80
2023/07/29 03:45:31;;;;;;;1.70;1.60;;;;;;;19.61;98.30;99597.00;5079286;28;20208;-80
2023/07/29 03:47:58;;;;;;;1.47;1.37;;;;;;;19.70;98.16;99599.03;5074545;28;20685;-80
2023/07/29 03:50:25;;;;;;;1.77;1.67;;;;;;;19.76;97.93;99601.28;5092451;28;20222;-80
2023/07/29 03:52:51;;;;;;;1.47;1.47;;;;;;;19.80;97.33;99600.09;5094263;28;20211;-81
2023/07/29 03:55:17;;;;;;;1.57;1.47;;;;;;;19.84;96.87;99604.22;5081313;28;20200;-80
2023/07/29 03:57:44;;;;;;;1.40;1.30;;;;;;;19.90;96.71;99610.00;5074142;28;20219;-79
2023/07/29 04:00:12;;;;;;;1.67;1.57;;;;;;;19.91;97.38;99601.97;5089305;28;20239;-80
2023/07/29 04:02:38;;;;;;;1.77;1.67;;;;;;;19.92;97.70;99592.22;5094618;28;20299;-80
2023/07/29 04:05:06;;;;;;;1.60;1.50;;;;;;;19.94;97.34;99596.47;5083068;28;20212;-80
2023/07/29 04:07:32;;;;;;;2.13;1.70;;;;;;;19.93;97.12;99596.56;5073842;28;20231;-80
2023/07/29 04:09:59;;;;;;;2.10;1.60;;;;;;;19.95;97.40;99592.00;5086780;28;20233;-80
2023/07/29 04:12:25;;;;;;;2.20;1.40;;;;;;;19.96;97.98;99583.09;5094412;28;20207;-79
2023/07/29 04:14:52;;;;;;;3.30;1.47;;;;;;;19.97;98.51;99566.25;5085389;28;20341;-80
2023/07/29 04:17:20;;;;;;;2.70;1.60;;;;;;;19.97;98.67;99556.50;5075091;28;20722;-80
2023/07/29 04:19:46;;;;;;;1.47;1.37;;;;;;;19.98;98.63;99560.84;5085390;28;20230;-80
2023/07/29 04:22:13;;;;;;;3.83;1.47;;;;;;;19.96;99.00;99549.53;5094424;28;20220;-80
2023/07/29 04:24:39;;;;;;;2.37;1.10;;;;;;;19.96;99.57;99543.34;5087166;28;20202;-80
2023/07/29 04:27:06;;;;;;;3.13;1.20;;;;;;;19.93;100.00;99539.13;5077570;28;20253;-80
2023/07/29 04:29:32;;;;;;;1.63;1.53;;;;;;;19.95;99.90;99526.63;5087864;28;20713;-80
2023/07/29 04:31:59;;;;;;;1.27;1.17;;;;;;;19.95;100.00;99528.44;5075222;28;20202;-81
2023/07/29 04:34:26;;;;;;;1.77;1.67;;;;;;;19.96;99.32;99544.22;5081487;28;20211;-80
2023/07/29 04:36:53;;;;;;;1.50;1.40;;;;;;;19.97;99.87;99535.31;5094465;28;20282;-81
2023/07/29 04:39:19;;;;;;;1.50;1.40;;;;;;;19.98;99.68;99531.72;5089879;28;20232;-80
2023/07/29 04:41:46;;;;;;;2.00;1.63;;;;;;;19.97;100.00;99515.91;5074140;28;20228;-80
2023/07/29 04:44:12;;;;;;;1.33;1.27;;;;;;;19.97;100.00;99507.97;5078753;28;20210;-80
2023/07/29 04:46:39;;;;;;;3.20;1.67;;;;;;;19.99;100.00;99508.72;5094496;28;20203;-80
2023/07/29 04:49:05;;;;;;;2.57;1.40;;;;;;;19.99;100.00;99500.75;5091300;28;20291;-80
2023/07/29 04:51:33;;;;;;;1.93;1.80;;;;;;;20.01;100.00;99504.13;5074171;28;20208;-80
2023/07/29 04:54:00;;;;;;;2.23;1.63;;;;;;;19.99;100.00;99509.53;5075505;28;20209;-80
2023/07/29 04:56:26;;;;;;;1.90;1.70;;;;;;;20.04;100.00;99523.31;5094245;28;20207;-80
2023/07/29 04:58:53;;;;;;;1.73;1.50;;;;;;;20.01;100.00;99504.13;5094511;28;20227;-80
2023/07/29 05:01:20;;;;;;;1.50;1.40;;;;;;;20.03;100.00;99504.88;5081215;28;20221;-80
2023/07/29 05:03:46;;;;;;;1.80;1.50;;;;;;;20.04;100.00;99514.53;5074058;28;20230;-80
2023/07/29 05:06:13;;;;;;;1.33;1.23;;;;;;;20.10;100.00;99515.84;5094088;28;20276;-81
2023/07/29 05:08:41;;;;;;;1.77;1.67;;;;;;;20.11;100.00;99514.91;5095797;28;20233;-82
2023/07/29 05:11:07;;;;;;;1.73;1.40;;;;;;;20.14;100.00;99512.88;5084811;28;20290;-82
2023/07/29 05:13:34;;;;;;;1.60;1.50;;;;;;;20.14;100.00;99517.34;5076076;28;20260;-81
2023/07/29 05:16:01;;;;;;;1.33;1.30;;;;;;;20.14;100.00;99512.88;5093257;28;20203;-81
2023/07/29 05:18:27;;;;;;;1.97;1.30;;;;;;;20.20;100.00;99506.28;5097421;28;20207;-82
2023/07/29 05:20:54;;;;;;;1.60;1.50;;;;;;;20.15;100.00;99501.31;5096863;28;20236;-81
2023/07/29 05:23:20;;;;;;;1.70;1.60;;;;;;;20.12;100.00;99496.25;5096686;28;20203;-79
2023/07/29 05:25:48;;;;;;;2.07;1.60;;;;;;;20.09;100.00;99477.94;5088617;28;20212;-81
2023/07/29 05:28:14;;;;;;;2.03;1.93;;;;;;;20.10;100.00;99482.28;5081740;22;20281;-78
2023/07/29 05:30:41;;;;;;;1.90;1.50;;;;;;;20.16;100.00;99476.53;5072000;28;20218;-79
2023/07/29 05:33:08;;;;;;;1.67;1.57;;;;;;;20.20;100.00;99477.16;5071835;28;20555;-78
2023/07/29 05:35:34;;;;;;;1.70;1.60;;;;;;;20.22;100.00;99470.75;5072325;28;20205;-77
2023/07/29 05:38:01;;;;;;;1.87;1.37;;;;;;;20.22;100.00;99473.41;5071667;28;20228;-78
2023/07/29 05:40:27;;;;;;;2.87;1.50;;;;;;;20.22;100.00;99469.94;5072357;28;20207;-79
2023/07/29 05:42:56;;;;;;;1.50;1.40;;;;;;;20.23;100.00;99475.09;5072142;28;20220;-78
2023/07/29 05:45:22;;;;;;;1.90;1.80;;;;;;;20.26;100.00;99478.47;5072253;28;20291;-78
2023/07/29 05:47:49;;;;;;;1.80;1.70;;;;;;;20.28;100.00;99482.72;5071894;28;20606;-79
2023/07/29 05:50:15;;;;;;;1.43;1.43;;;;;;;20.27;100.00;99480.16;5072441;28;20209;-78
2023/07/29 05:52:42;;;;;;;1.60;1.50;;;;;;;20.28;100.00;99479.19;5072516;28;20646;-79
2023/07/29 05:55:09;;;;;;;1.57;1.47;;;;;;;20.28;100.00;99481.84;5077267;28;20590;-79
2023/07/29 05:57:35;;;;;;;1.70;1.60;;;;;;;20.28;100.00;99474.75;5081819;28;20701;-79
2023/07/29 06:00:04;;;;;;;1.50;1.50;;;;;;;20.30;100.00;99451.63;5072145;28;20208;-79
2023/07/29 06:02:30;;;;;;;2.50;1.50;;;;;;;20.29;100.00;99441.97;5071972;28;20220;-79
2023/07/29 06:04:56;;;;;;;1.63;1.53;;;;;;;20.27;100.00;99424.53;5072249;28;20216;-79
2023/07/29 06:07:23;;;;;;;1.77;1.67;;;;;;;20.29;100.00;99427.91;5072160;28;20243;-81
2023/07/29 06:09:50;;;;;;;1.87;1.77;;;;;;;20.33;100.00;99426.69;5080800;28;20555;-78
2023/07/29 06:12:16;;;;;;;3.13;1.60;;;;;;;20.31;100.00;99420.66;5072002;28;20204;-78
2023/07/29 06:14:42;;;;;;;1.60;1.50;;;;;;;20.29;100.00;99415.47;5071665;28;20216;-79
2023/07/29 06:17:11;;;;;;;1.70;1.60;;;;;;;20.30;100.00;99419.00;5071375;28;20687;-78
2023/07/29 06:19:37;;;;;;;1.80;1.67;;;;;;;20.28;100.00;99427.06;5072513;28;20273;-78
2023/07/29 06:22:05;;;;;;;2.10;1.90;;;;;;;20.28;100.00;99427.06;5071499;28;20633;-79
2023/07/29 06:24:32;;;;;;;1.77;1.67;;;;;;;20.31;100.00;99425.97;5071738;28;20650;-79
2023/07/29 06:26:58;;;;;;;2.83;1.40;;;;;;;20.33;100.00;99432.00;5071151;28;20235;-79
2023/07/29 06:29:25;;;;;;;1.50;1.40;;;;;;;20.32;100.00;99431.16;5071810;28;20200;-79
2023/07/29 06:31:52;;;;;;;1.53;1.40;;;;;;;20.32;100.00;99433.81;5072680;28;20717;-78
2023/07/29 06:34:19;;;;;;;2.40;1.83;;;;;;;20.34;100.00;99431.88;5075470;28;20292;-79
2023/07/29 06:36:46;;;;;;;1.80;1.70;;;;;;;20.36;100.00;99445.03;5077976;28;20239;-80
2023/07/29 06:39:12;;;;;;;1.27;1.23;;;;;;;20.44;100.00;99445.28;5076216;28;20202;-80
2023/07/29 06:41:39;;;;;;;1.67;1.57;;;;;;;20.47;100.00;99452.16;5075649;28;20224;-79
2023/07/29 06:44:05;;;;;;;1.60;1.50;;;;;;;20.48;100.00;99443.25;5075485;28;20208;-78
2023/07/29 06:46:32;;;;;;;2.53;1.40;;;;;;;20.45;100.00;99417.81;5075421;28;20208;-79
2023/07/29 06:48:58;;;;;;;1.97;1.53;;;;;;;20.49;100.00;99434.34;5075673;28;20219;-79
2023/07/29 06:51:26;;;;;;;1.30;1.17;;;;;;;20.57;100.00;99439.88;5075652;28;20269;-81
2023/07/29 06:53:53;;;;;;;1.67;1.57;;;;;;;20.63;100.00;99437.66;5074747;28;20227;-79
2023/07/29 06:56:19;;;;;;;2.30;1.33;;;;;;;20.58;100.00;99437.13;5075275;28;20203;-79
2023/07/29 06:58:46;;;;;;;1.43;1.13;;;;;;;20.60;100.00;99463.56;5075447;28;20212;-80
2023/07/29 07:01:12;;;;;;;1.37;1.27;;;;;;;20.60;100.00;99464.41;5075683;28;20229;-80
2023/07/29 07:03:38;;;;;;;1.43;1.20;;;;;;;20.60;100.00;99472.34;5078266;28;20204;-81
2023/07/29 07:06:05;;;;;;;1.10;1.10;;;;;;;20.42;100.00;99468.44;5076535;28;20623;-79
2023/07/29 07:08:33;;;;;;;1.40;1.37;;;;;;;20.37;100.00;99442.25;5074491;28;20285;-79
2023/07/29 07:10:59;;;;;;;1.47;1.37;;;;;;;20.48;100.00;99445.91;5074971;28;20217;-80
2023/07/29 07:13:26;;;;;;;1.33;1.33;;;;;;;20.55;100.00;99452.41;5075082;28;20303;-79
2023/07/29 07:15:55;;;;;;;2.53;1.40;;;;;;;20.60;100.00;99450.31;5075485;28;20265;-81
2023/07/29 07:18:22;;;;;;;1.20;1.10;;;;;;;20.59;100.00;99452.13;5077402;28;20227;-79
2023/07/29 07:20:49;;;;;;;0.93;0.90;;;;;;;20.35;100.00;99443.31;5074913;28;20216;-80
2023/07/29 07:23:15;;;;;;;1.17;1.00;;;;;;;20.49;100.00;99447.59;5073915;28;20200;-79
2023/07/29 07:25:43;;;;;;;1.00;1.00;;;;;;;20.27;100.00;99429.81;5074760;28;20213;-79
2023/07/29 07:28:10;;;;;;;1.10;1.00;;;;;;;20.39;100.00;99423.56;5074139;28;20644;-79
2023/07/29 07:30:40;;;;;;;1.00;0.80;;;;;;;20.49;100.00;99431.69;5075116;28;20206;-79
2023/07/29 07:33:06;;;;;;;1.33;1.03;;;;;;;20.55;100.00;99437.34;5072959;28;20205;-81
2023/07/29 07:35:33;;;;;;;2.70;1.03;;;;;;;20.43;100.00;99441.81;5074211;28;20627;-78
2023/07/29 07:38:01;;;;;;;0.93;0.93;;;;;;;20.41;100.00;99435.75;5072851;28;20232;-79
2023/07/29 07:40:28;;;;;;;0.77;0.77;;;;;;;20.48;100.00;99451.22;5071328;28;20234;-78
2023/07/29 07:42:56;;;;;;;1.50;0.87;;;;;;;20.49;100.00;99450.22;5073643;28;20224;-79
2023/07/29 07:45:22;;;;;;;1.37;1.10;;;;;;;20.60;100.00;99448.50;5075763;28;20200;-79
2023/07/29 07:47:48;;;;;;;0.90;0.90;;;;;;;20.66;100.00;99449.81;5072805;28;20238;-77
2023/07/29 07:50:15;;;;;;;0.90;0.90;;;;;;;20.62;100.00;99466.94;5073160;28;20197;-77
2023/07/29 07:52:41;;;;;;;1.10;0.87;;;;;;;20.74;100.00;99449.25;5073572;28;20933;-77
2023/07/29 07:55:09;;;;;;;0.90;0.90;;;;;;;20.89;100.00;99431.28;5074329;28;20601;-78
2023/07/29 07:57:35;;;;;;;0.73;0.73;;;;;;;20.93;100.00;99446.00;5071142;28;20220;-77
2023/07/29 08:00:04;;;;;;;0.90;0.90;;;;;;;21.07;100.00;99436.94;5074469;28;20253;-77
2023/07/29 08:02:30;;;;;;;0.93;0.90;;;;;;;21.21;100.00;99444.69;5074622;28;20626;-77
2023/07/29 08:04:57;;;;;;;1.03;0.80;;;;;;;21.28;100.00;99443.22;5074267;28;20201;-77
2023/07/29 08:07:23;;;;;;;1.00;0.80;;;;;;;21.29;100.00;99468.81;5072597;28;20250;-77
2023/07/29 08:09:50;;;;;;;1.57;1.00;;;;;;;21.29;100.00;99483.88;5073374;28;20207;-77
2023/07/29 08:12:16;;;;;;;0.87;0.87;;;;;;;21.35;100.00;99486.91;5073260;28;20260;-78
2023/07/29 08:14:42;;;;;;;0.83;0.83;;;;;;;21.33;100.00;99490.66;5072376;28;20607;-78
2023/07/29 08:17:10;;;;;;;2.23;1.20;;;;;;;21.38;100.00;99505.22;5072118;28;20316;-77
2023/07/29 08:19:37;;;;;;;1.20;1.10;;;;;;;21.26;100.00;99519.47;5068004;28;20197;-76
2023/07/29 08:22:03;;;;;;;1.10;1.10;;;;;;;21.33;100.00;99503.94;5072820;28;20219;-76
2023/07/29 08:24:30;;;;;;;1.57;1.17;;;;;;;21.42;100.00;99506.66;5071195;28;20250;-77
2023/07/29 08:26:56;;;;;;;1.40;1.10;;;;;;;21.26;100.00;99526.59;5072525;28;20243;-77
2023/07/29 08:29:23;;;;;;;2.30;1.43;;;;;;;21.25;100.00;99515.16;5073290;28;20212;-78
2023/07/29 08:31:51;;;;;;;1.53;1.20;;;;;;;21.38;100.00;99501.72;5073262;28;20201;-78
2023/07/29 08:34:19;;;;;;;1.30;1.30;;;;;;;21.28;100.00;99529.97;5073072;28;20243;-78
2023/07/29 08:36:45;;;;;;;1.10;1.10;;;;;;;21.38;100.00;99517.66;5073012;28;20403;-78
2023/07/29 08:39:11;;;;;;;1.20;1.20;;;;;;;21.46;100.00;99517.09;5073429;28;20200;-78
2023/07/29 08:41:45;;;;;;;1.20;1.10;;;;;;;21.23;100.00;99533.00;5074317;28;20520;-78
2023/07/29 08:44:19;;;;;;;1.50;1.40;;;;;;;21.32;100.00;99520.81;5073344;28;20212;-79
2023/07/29 08:46:45;;;;;;;1.40;1.30;;;;;;;21.27;100.00;99515.00;5076408;28;20726;-80
2023/07/29 08:49:13;;;;;;;1.57;1.40;;;;;;;21.07;100.00;99506.81;5075782;28;20208;-81
2023/07/29 08:51:43;;;;;;;1.70;1.60;;;;;;;21.00;100.00;99476.41;5074661;28;20202;-81
2023/07/29 08:54:11;;;;;;;1.50;1.50;;;;;;;21.07;100.00;99482.94;5074198;28;20208;-79
2023/07/29 08:56:38;;;;;;;1.60;1.50;;;;;;;21.13;100.00;99492.19;5074682;28;20231;-80
2023/07/29 08:59:05;;;;;;;1.90;1.80;;;;;;;21.08;100.00;99516.44;5077410;28;20205;-81
2023/07/29 09:01:32;;;;;;;1.70;1.60;;;;;;;21.01;100.00;99525.88;5076257;28;20280;-80
2023/07/29 09:03:58;;;;;;;2.13;1.70;;;;;;;21.09;100.00;99512.84;5075979;28;20222;-81
2023/07/29 09:06:27;;;;;;;2.17;1.97;;;;;;;21.20;100.00;99509.34;5076576;28;20208;-81
2023/07/29 09:08:56;;;;;;;2.00;1.90;;;;;;;21.20;100.00;99517.31;5074892;28;20595;-80
2023/07/29 09:11:23;;;;;;;1.77;1.67;;;;;;;21.22;100.00;99531.28;5076368;28;20203;-81
2023/07/29 09:13:49;;;;;;;1.90;1.80;;;;;;;21.12;100.00;99543.59;5076211;28;20209;-81
2023/07/29 09:16:16;;;;;;;1.90;1.80;;;;;;;21.14;100.00;99537.19;5074615;28;20215;-79
2023/07/29 09:18:42;;;;;;;2.00;1.90;;;;;;;21.26;100.00;99532.75;5076042;28;20254;-81
2023/07/29 09:21:09;;;;;;;3.07;1.90;;;;;;;21.20;100.00;99525.25;5076402;28;20211;-80
2023/07/29 09:23:42;;;;;;;1.90;1.80;;;;;;;21.31;100.00;99537.72;5073632;28;20737;-79
2023/07/29 09:26:11;;;;;;;2.33;2.17;;;;;;;21.31;100.00;99538.56;5070044;28;20214;-78
2023/07/29 09:28:39;;;;;;;2.17;2.07;;;;;;;21.47;100.00;99542.69;5072102;28;20232;-79
2023/07/29 09:31:06;;;;;;;2.30;2.20;;;;;;;21.54;100.00;99543.88;5072019;28;20216;-79
2023/07/29 09:33:36;;;;;;;2.60;2.40;;;;;;;21.70;100.00;99524.91;5072144;28;20200;-79
2023/07/29 09:36:03;;;;;;;3.10;2.90;;;;;;;21.79;100.00;99548.09;5071815;28;20212;-79
2023/07/29 09:38:30;;;;;;;3.07;2.97;;;;;;;21.86;98.60;99582.97;5070549;28;20868;-79
2023/07/29 09:40:57;;;;;;;3.10;2.90;;;;;;;21.83;97.33;99597.38;5071889;28;20215;-79
2023/07/29 09:43:29;;;;;;;3.47;3.27;;;;;;;21.88;97.97;99595.16;5071769;28;20254;-79
2023/07/29 09:45:55;;;;;;;3.93;3.67;;;;;;;22.05;98.50;99590.34;5072484;28;20291;-79
2023/07/29 09:48:23;;;;;;;3.00;2.80;;;;;;;22.06;94.52;99624.78;5072155;28;20228;-79
2023/07/29 09:50:50;;;;;;;4.90;4.60;;;;;;;21.92;92.97;99671.03;5072607;28;20209;-79
2023/07/29 09:53:18;;;;;;;5.20;4.90;;;;;;;21.86;93.09;99668.84;5072014;28;20208;-80
2023/07/29 09:55:47;;;;;;;5.20;4.80;;;;;;;21.71;94.19;99668.25;5072361;28;20200;-79
2023/07/29 09:58:14;;;;;;;5.93;5.63;;;;;;;21.87;94.26;99654.59;5071879;28;20220;-81
2023/07/29 10:00:42;;;;;;;6.37;6.07;;;;;;;21.95;93.50;99677.91;5072620;28;20201;-80
2023/07/29 10:03:09;;;;;;;7.33;6.90;;;;;;;21.89;92.82;99676.59;5072059;28;20225;-79
2023/07/29 10:05:35;;;;;;;9.10;8.50;;;;;;;21.93;91.86;99693.16;5072097;28;20200;-79
2023/07/29 10:08:02;;;;;;;9.33;8.63;;;;;;;22.07;92.24;99679.59;5071017;28;20239;-79
2023/07/29 10:10:29;;;;;;;9.60;9.00;;;;;;;22.10;89.37;99724.56;5072457;28;20574;-79
2023/07/29 10:12:57;;;;;;;9.47;8.93;;;;;;;22.14;87.09;99763.22;5072102;28;20196;-79
2023/07/29 10:15:24;;;;;;;10.27;9.43;;;;;;;22.29;87.18;99771.00;5072034;28;20204;-79
2023/07/29 10:17:52;;;;;;;10.47;9.60;;;;;;;22.21;87.10;99771.56;5071871;28;20224;-79
2023/07/29 10:20:19;;;;;;;10.37;9.57;;;;;;;22.40;87.16;99768.34;5071656;28;20266;-77
2023/07/29 10:22:48;;;;;;;9.67;9.07;;;;;;;22.28;85.27;99802.06;5070661;28;20270;-79
2023/07/29 10:25:17;;;;;;;9.70;9.00;;;;;;;22.57;87.35;99775.81;5071373;28;20209;-78
2023/07/29 10:27:48;;;;;;;9.33;8.57;;;;;;;22.68;85.07;99790.09;5071276;28;20236;-78
2023/07/29 10:30:15;;;;;;;8.70;8.03;;;;;;;22.73;82.25;99851.75;5072170;28;20564;-78
2023/07/29 10:32:44;;;;;;;8.47;7.97;;;;;;;22.66;78.76;99920.56;5072154;28;20237;-79
2023/07/29 10:35:13;;;;;;;8.63;8.13;;;;;;;22.74;80.16;99926.13;5071890;28;20212;-78
2023/07/29 10:37:41;;;;;;;7.83;7.37;;;;;;;22.91;77.37;99961.22;5071021;28;20776;-79
2023/07/29 10:40:09;;;;;;;7.67;7.17;;;;;;;23.03;74.96;100018.00;5071856;28;20697;-79
2023/07/29 10:42:36;;;;;;;7.03;6.57;;;;;;;23.12;74.76;100036.78;5071106;28;20234;-80
2023/07/29 10:45:18;;;;;;;7.40;6.90;;;;;;;23.08;73.96;100058.44;5071779;28;20639;-81
2023/07/29 10:47:45;;;;;;;7.23;6.83;;;;;;;23.18;75.66;100038.97;5071502;28;20259;-81
2023/07/29 10:50:20;;;;;;;6.73;6.23;;;;;;;23.25;73.03;100083.75;5070574;28;20231;-80
2023/07/29 10:52:50;;;;;;;5.70;5.37;;;;;;;23.11;67.48;100170.03;5071637;28;20219;-80
2023/07/29 10:55:36;;;;;;;5.77;5.47;;;;;;;23.31;70.76;100164.06;5071449;28;20213;-80
2023/07/29 10:58:12;;;;;;;5.53;5.23;;;;;;;23.21;69.08;100192.34;5071488;28;20232;-81
2023/07/29 11:00:39;;;;;;;5.47;4.97;;;;;;;23.29;68.92;100184.63;5071750;28;20209;-80
2023/07/29 11:03:07;;;;;;;5.20;4.90;;;;;;;23.30;68.39;100212.94;5071137;28;20225;-81
2023/07/29 11:05:50;;;;;;;4.80;4.60;;;;;;;23.13;66.96;100254.19;5071273;28;20224;-82
2023/07/29 11:08:17;;;;;;;5.10;4.80;;;;;;;23.03;69.12;100221.19;5070923;28;20221;-82
2023/07/29 11:10:45;;;;;;;5.20;4.90;;;;;;;22.71;69.32;100207.56;5071807;28;20292;-85
2023/07/29 11:13:19;;;;;;;4.73;4.43;;;;;;;22.71;70.10;100167.66;5071024;28;20283;-82
2023/07/29 11:15:47;;;;;;;5.23;4.93;;;;;;;22.48;71.62;100127.66;5070337;28;20213;-82
2023/07/29 11:18:15;;;;;;;4.97;4.43;;;;;;;22.29;72.04;100104.22;5070237;28;20221;-81
2023/07/29 11:20:59;;;;;;;5.13;4.93;;;;;;;22.28;72.70;100078.59;4720447;28;10002776;-81
2023/07/29 11:23:30;;;;;;;4.70;4.50;;;;;;;22.33;71.16;100087.06;5072423;28;20243;-80
2023/07/29 11:25:58;;;;;;;5.20;4.87;;;;;;;22.52;69.80;100121.16;5073194;28;20248;-82
2023/07/29 11:28:24;;;;;;;4.77;4.47;;;;;;;22.68;69.00;100142.16;5072403;28;20754;-80
2023/07/29 11:30:52;;;;;;;4.60;4.40;;;;;;;22.94;68.69;100148.16;5075134;28;20622;-86